Time;durP1;ratioP1;P1;durP2;ratioP2;P2;SDS_P1;SDS_P2;PMS_P1;PMS_P2;Temp;Humidity;BMP_temperature;BMP_pressure;BME280_temperature;BME280_humidity;BME280_pressure;Samples;Min_cycle;Max_cycle;Signal;HPM_P1;HPM_P2
2024/03/21 00:00:09;;;;;;;123.85;64.63;;;;;;;9.11;51.12;100613.84;5038152;27;96939;-78
2024/03/21 00:02:38;;;;;;;122.25;61.10;;;;;;;9.05;51.25;100607.84;5036860;27;97926;-80
2024/03/21 00:05:05;;;;;;;130.35;62.17;;;;;;;8.96;51.57;100587.13;5077290;27;97361;-78
2024/03/21 00:07:31;;;;;;;125.68;62.78;;;;;;;9.03;51.67;100612.25;5078164;27;96770;-79
2024/03/21 00:09:57;;;;;;;136.82;64.40;;;;;;;8.87;51.49;100573.34;5056505;27;97426;-78
2024/03/21 00:12:24;;;;;;;126.40;63.45;;;;;;;9.01;51.65;100607.94;5038821;27;101094;-78
2024/03/21 00:14:49;;;;;;;118.93;62.10;;;;;;;9.01;51.08;100608.78;5074212;27;96626;-78
2024/03/21 00:17:15;;;;;;;125.80;61.05;;;;;;;8.70;51.65;100564.16;5042543;27;96869;-78
2024/03/21 00:19:40;;;;;;;120.53;62.30;;;;;;;8.91;51.41;100609.06;5041199;27;96789;-77
2024/03/21 00:22:06;;;;;;;120.60;61.60;;;;;;;8.81;51.68;100605.75;5027984;27;101806;-77
2024/03/21 00:24:31;;;;;;;122.85;59.58;;;;;;;8.78;51.95;100608.44;5047554;27;97388;-78
2024/03/21 00:26:57;;;;;;;115.55;58.60;;;;;;;8.78;51.89;100613.69;5052667;27;97153;-78
2024/03/21 00:29:24;;;;;;;128.93;58.90;;;;;;;8.59;51.96;100587.06;5050762;27;97079;-78
2024/03/21 00:31:51;;;;;;;121.00;58.65;;;;;;;8.75;52.06;100608.53;5037455;27;101268;-77
2024/03/21 00:34:16;;;;;;;131.00;62.05;;;;;;;8.63;52.26;100575.63;5040858;27;97411;-78
2024/03/21 00:36:42;;;;;;;119.70;57.95;;;;;;;8.77;51.54;100602.34;5059618;27;97143;-76
2024/03/21 00:39:09;;;;;;;126.18;60.33;;;;;;;8.78;51.62;100590.97;5077142;27;96778;-78
2024/03/21 00:41:35;;;;;;;135.70;59.50;;;;;;;8.71;52.35;100602.50;5042010;27;97404;-79
2024/03/21 00:44:00;;;;;;;121.20;60.92;;;;;;;8.73;51.95;100598.09;5061757;27;98120;-78
2024/03/21 00:46:26;;;;;;;119.32;58.28;;;;;;;8.67;51.95;100600.84;5048416;27;96821;-78
2024/03/21 00:48:51;;;;;;;120.13;59.88;;;;;;;8.67;51.88;100587.78;5045679;27;97132;-79
2024/03/21 00:51:17;;;;;;;117.55;57.88;;;;;;;8.64;52.32;100597.41;5044427;27;97606;-76
2024/03/21 00:53:42;;;;;;;120.60;61.10;;;;;;;8.54;52.22;100583.69;5037479;27;101427;-78
2024/03/21 00:56:08;;;;;;;125.65;61.30;;;;;;;8.49;52.33;100591.63;5038382;27;96804;-78
2024/03/21 00:58:33;;;;;;;113.50;58.20;;;;;;;8.45;52.64;100589.13;5035213;27;96840;-79
2024/03/21 01:00:59;;;;;;;126.97;60.47;;;;;;;8.44;52.30;100587.41;5051304;27;101048;-76
2024/03/21 01:03:24;;;;;;;117.65;59.20;;;;;;;8.47;52.62;100582.97;5036581;27;99768;-76
2024/03/21 01:05:54;;;;;;;121.53;61.10;;;;;;;8.56;52.39;100587.13;5038093;27;98106;-76
2024/03/21 01:08:20;;;;;;;117.22;59.55;;;;;;;8.33;52.46;100553.59;5036484;27;96972;-78
2024/03/21 01:10:48;;;;;;;120.47;60.50;;;;;;;8.39;52.47;100575.25;5032183;27;101291;-78
2024/03/21 01:13:13;;;;;;;124.95;61.40;;;;;;;8.45;52.30;100562.97;5053241;27;98072;-76
2024/03/21 01:15:39;;;;;;;113.78;59.67;;;;;;;8.23;52.73;100526.78;5039773;27;96790;-78
2024/03/21 01:18:06;;;;;;;115.70;59.58;;;;;;;8.35;52.60;100557.03;5042604;27;97039;-78
2024/03/21 01:20:32;;;;;;;121.15;59.85;;;;;;;8.35;52.74;100555.28;5032708;27;101809;-80
2024/03/21 01:22:59;;;;;;;116.80;61.30;;;;;;;8.39;52.55;100564.78;5036764;27;100033;-78
2024/03/21 01:25:26;;;;;;;120.05;63.13;;;;;;;8.26;52.60;100547.63;5054747;27;97178;-76
2024/03/21 01:27:52;;;;;;;119.60;61.22;;;;;;;8.25;52.87;100558.09;5038022;27;97410;-78
2024/03/21 01:30:18;;;;;;;116.93;60.22;;;;;;;8.30;53.13;100558.88;5035361;27;98001;-76
2024/03/21 01:32:43;;;;;;;117.18;59.65;;;;;;;8.15;53.08;100555.69;5017851;27;101143;-76
2024/03/21 01:35:08;;;;;;;119.80;59.88;;;;;;;8.18;52.93;100548.69;5068738;27;96689;-76
2024/03/21 01:37:34;;;;;;;121.38;61.45;;;;;;;8.10;53.47;100538.38;5040475;27;96868;-76
2024/03/21 01:40:06;;;;;;;116.65;59.65;;;;;;;8.06;53.57;100539.34;5040599;27;101826;-76
2024/03/21 01:42:31;;;;;;;;;;;;;;;7.90;54.28;100543.97;5076556;27;97606;-76
2024/03/21 01:45:05;;;;;;;110.10;53.13;;;;;;;7.91;54.42;100548.31;5046563;27;97296;-77
2024/03/21 01:47:34;;;;;;;107.95;55.22;;;;;;;7.76;54.20;100546.00;5061557;27;97967;-77
2024/03/21 01:50:00;;;;;;;103.35;54.30;;;;;;;7.80;54.49;100542.47;5054240;27;97601;-76
2024/03/21 01:52:26;;;;;;;103.65;52.85;;;;;;;7.84;54.59;100531.03;5045102;27;97189;-77
2024/03/21 01:54:53;;;;;;;105.20;54.45;;;;;;;7.88;54.60;100538.81;5027197;27;97091;-76
2024/03/21 01:57:19;;;;;;;101.30;53.22;;;;;;;7.88;54.01;100533.56;5054660;27;96922;-77
2024/03/21 01:59:44;;;;;;;109.93;55.10;;;;;;;7.91;54.08;100533.50;5033370;27;99784;-77
2024/03/21 02:02:11;;;;;;;103.80;54.08;;;;;;;7.96;54.00;100536.00;5032749;27;100930;-77
2024/03/21 02:04:37;;;;;;;101.80;54.03;;;;;;;7.63;54.94;100519.25;5047961;27;97158;-77
2024/03/21 02:07:03;;;;;;;105.20;53.28;;;;;;;7.65;54.33;100510.50;5054396;27;97130;-77
2024/03/21 02:09:31;;;;;;;105.15;53.28;;;;;;;7.64;54.52;100510.50;5050721;27;97603;-77
2024/03/21 02:12:08;;;;;;;101.53;52.50;;;;;;;7.64;54.75;100516.59;5039749;27;101474;-79
2024/03/21 02:14:35;;;;;;;105.75;53.50;;;;;;;7.58;55.07;100515.84;5045401;27;96929;-77
2024/03/21 02:17:01;;;;;;;105.78;54.17;;;;;;;7.59;54.94;100536.75;5025154;27;96882;-77
2024/03/21 02:19:27;;;;;;;99.60;52.78;;;;;;;7.68;54.84;100533.09;5053182;27;101173;-77
2024/03/21 02:24:36;;;;;;;96.38;51.85;;;;;;;7.71;54.74;100520.81;5047889;27;96846;-77
2024/03/21 02:27:01;;;;;;;97.15;50.35;;;;;;;7.54;54.78;100494.16;5035543;27;97008;-78
2024/03/21 02:29:27;;;;;;;108.25;52.13;;;;;;;7.76;54.81;100533.78;5033255;27;101289;-78
2024/03/21 02:31:52;;;;;;;107.25;51.30;;;;;;;7.81;54.93;100534.56;5053321;27;97738;-77
2024/03/21 02:34:19;;;;;;;106.35;51.83;;;;;;;7.88;54.58;100541.41;5050702;27;97139;-77
2024/03/21 02:36:44;;;;;;;107.60;52.10;;;;;;;7.95;54.15;100536.91;5053169;27;96950;-77
2024/03/21 02:39:10;;;;;;;103.70;53.17;;;;;;;8.01;54.23;100531.56;5053258;27;97514;-77
2024/03/21 02:41:36;;;;;;;111.40;53.55;;;;;;;7.95;54.49;100531.69;5036415;27;101273;-77
2024/03/21 02:44:02;;;;;;;105.53;52.58;;;;;;;7.97;54.32;100536.88;5040184;27;96742;-77
2024/03/21 02:46:28;;;;;;;108.82;53.88;;;;;;;7.82;54.66;100530.19;5043975;27;96839;-77
2024/03/21 02:48:53;;;;;;;101.75;52.97;;;;;;;7.82;54.73;100538.03;5050467;27;97542;-77
2024/03/21 02:51:19;;;;;;;105.45;51.92;;;;;;;7.70;55.14;100537.38;5036092;27;101130;-77
2024/03/21 02:53:44;;;;;;;104.32;53.13;;;;;;;7.69;54.80;100542.66;5018937;27;96891;-77
2024/03/21 02:56:10;;;;;;;98.72;50.35;;;;;;;7.75;54.50;100532.06;5036361;27;97389;-77
2024/03/21 02:58:35;;;;;;;97.00;50.05;;;;;;;7.75;55.04;100542.53;5052759;27;99661;-77
2024/03/21 03:01:01;;;;;;;108.15;54.95;;;;;;;7.57;54.90;100511.53;5047740;27;97671;-77
2024/03/21 03:03:26;;;;;;;99.53;51.95;;;;;;;7.68;54.99;100539.19;5046063;27;96931;-77
2024/03/21 03:05:52;;;;;;;107.70;54.15;;;;;;;7.61;54.71;100531.47;5050790;27;97169;-77
2024/03/21 03:08:17;;;;;;;105.22;53.15;;;;;;;7.60;55.00;100528.00;5036110;27;97697;-80
2024/03/21 03:10:43;;;;;;;105.43;51.20;;;;;;;7.70;54.80;100526.91;5036205;27;101090;-78
2024/03/21 03:13:08;;;;;;;97.22;50.70;;;;;;;7.68;54.67;100528.72;5049627;27;98425;-77
2024/03/21 03:15:34;;;;;;;108.90;50.78;;;;;;;7.69;54.96;100516.50;5027030;27;96847;-78
2024/03/21 03:17:59;;;;;;;100.63;50.67;;;;;;;7.53;54.82;100502.00;5040404;27;97419;-77
2024/03/21 03:20:25;;;;;;;99.50;51.08;;;;;;;7.66;54.58;100525.28;5036273;27;98039;-77
2024/03/21 03:22:52;;;;;;;102.05;52.45;;;;;;;7.62;55.36;100528.84;5030469;28;97213;-77
2024/03/21 03:25:18;;;;;;;97.43;50.80;;;;;;;7.52;55.15;100522.06;5051037;27;97545;-77
2024/03/21 03:27:44;;;;;;;106.57;53.83;;;;;;;7.33;55.64;100531.09;5033374;27;98617;-78
2024/03/21 03:30:09;;;;;;;101.47;52.90;;;;;;;7.14;55.95;100531.41;5056649;27;97455;-78
2024/03/21 03:32:47;;;;;;;100.30;53.35;;;;;;;7.14;55.82;100523.59;5040467;27;97427;-77
2024/03/21 03:37:57;;;;;;;98.20;52.15;;;;;;;6.93;56.46;100510.91;5050450;27;98565;-77
2024/03/21 03:40:22;;;;;;;93.63;50.85;;;;;;;7.01;56.24;100495.94;5051552;27;97398;-78
2024/03/21 03:42:48;;;;;;;97.70;52.45;;;;;;;6.88;56.35;100495.28;5045816;27;97234;-78
2024/03/21 03:45:13;;;;;;;104.13;54.40;;;;;;;6.86;56.85;100501.41;5043235;27;96786;-78
2024/03/21 03:47:39;;;;;;;101.18;50.03;;;;;;;6.80;57.30;100523.25;5036633;27;98012;-78
2024/03/21 03:50:04;;;;;;;100.43;53.38;;;;;;;6.86;57.20;100522.28;5060309;27;97598;-77
2024/03/21 03:52:30;;;;;;;93.95;50.67;;;;;;;6.53;57.09;100483.66;5036698;27;97094;-77
2024/03/21 03:54:56;;;;;;;99.35;50.72;;;;;;;6.66;57.56;100520.88;5051196;27;97358;-77
2024/03/21 03:57:21;;;;;;;94.47;50.53;;;;;;;6.80;57.66;100529.31;5047363;27;97502;-77
2024/03/21 03:59:47;;;;;;;90.35;49.78;;;;;;;6.91;57.00;100525.69;5044024;27;97683;-77
2024/03/21 04:02:12;;;;;;;98.75;48.67;;;;;;;6.92;56.82;100530.03;5075998;27;97403;-77
2024/03/21 04:04:38;;;;;;;93.30;47.20;;;;;;;7.06;56.36;100533.28;5046000;27;96865;-78
2024/03/21 04:07:03;;;;;;;100.05;49.35;;;;;;;7.01;56.46;100535.09;5052905;27;97447;-78
2024/03/21 04:09:30;;;;;;;92.15;47.03;;;;;;;6.87;56.44;100511.84;5036213;27;100861;-77
2024/03/21 04:11:56;;;;;;;92.70;46.95;;;;;;;6.89;56.61;100527.47;5029210;27;96835;-78
2024/03/21 04:14:21;;;;;;;91.25;46.80;;;;;;;6.88;56.89;100526.63;5038877;27;96881;-77
2024/03/21 04:16:46;;;;;;;85.75;44.20;;;;;;;7.07;56.05;100524.59;5043015;27;97700;-77
2024/03/21 04:19:12;;;;;;;87.82;44.75;;;;;;;7.09;55.82;100522.78;5039564;27;101494;-77
2024/03/21 04:21:37;;;;;;;92.28;45.83;;;;;;;7.22;55.98;100524.31;5040241;27;97333;-78
2024/03/21 04:24:03;;;;;;;90.43;47.55;;;;;;;7.36;55.65;100531.03;5056236;27;96955;-77
2024/03/21 04:26:29;;;;;;;86.07;45.33;;;;;;;7.28;55.54;100515.53;5037326;27;101084;-77
2024/03/21 04:28:55;;;;;;;89.13;45.83;;;;;;;7.34;55.63;100519.78;5049738;27;97346;-77
2024/03/21 04:31:20;;;;;;;83.03;44.25;;;;;;;7.45;55.09;100539.59;5036433;27;96772;-77
2024/03/21 04:33:46;;;;;;;90.50;47.20;;;;;;;7.57;55.14;100542.88;5031331;27;97350;-77
2024/03/21 04:36:11;;;;;;;85.93;45.28;;;;;;;7.46;55.50;100517.78;5049843;27;97487;-77
2024/03/21 04:38:37;;;;;;;92.63;45.00;;;;;;;7.50;55.31;100526.44;5050417;27;98090;-77
2024/03/21 04:41:03;;;;;;;84.70;45.15;;;;;;;7.61;54.75;100544.53;5019046;27;96847;-79
2024/03/21 04:43:28;;;;;;;87.20;42.97;;;;;;;7.66;54.75;100537.47;5066113;27;96999;-78
2024/03/21 04:45:56;;;;;;;84.93;42.08;;;;;;;7.44;54.89;100516.09;5059746;27;97664;-78
2024/03/21 04:48:22;;;;;;;86.75;43.75;;;;;;;7.58;54.61;100531.53;5035314;27;101010;-77
2024/03/21 04:50:47;;;;;;;90.80;45.90;;;;;;;7.58;54.32;100523.69;5056880;27;96740;-77
2024/03/21 04:53:13;;;;;;;90.45;45.53;;;;;;;7.70;54.54;100540.00;5039148;27;97126;-77
2024/03/21 04:55:38;;;;;;;89.88;45.92;;;;;;;7.76;54.39;100540.78;5048198;27;101293;-78
2024/03/21 04:58:04;;;;;;;95.00;46.78;;;;;;;7.53;54.63;100509.84;5046749;27;97988;-78
2024/03/21 05:00:29;;;;;;;88.57;47.05;;;;;;;7.39;54.58;100538.84;5035429;27;96805;-77
2024/03/21 05:02:55;;;;;;;96.60;47.30;;;;;;;7.33;54.63;100528.47;5030978;27;97250;-77
2024/03/21 05:05:20;;;;;;;81.38;44.22;;;;;;;7.38;54.79;100521.44;5026020;27;101136;-77
2024/03/21 05:07:45;;;;;;;86.47;45.67;;;;;;;7.50;54.44;100544.72;5037974;27;100979;-77
2024/03/21 05:10:13;;;;;;;85.45;45.15;;;;;;;7.47;54.27;100536.94;5039225;27;96827;-77
2024/03/21 05:12:39;;;;;;;84.32;43.40;;;;;;;7.29;54.67;100521.59;5030356;27;96855;-78
2024/03/21 05:15:05;;;;;;;90.38;45.15;;;;;;;7.44;54.71;100537.00;5050380;27;97431;-78
2024/03/21 05:17:30;;;;;;;89.15;47.85;;;;;;;7.49;54.60;100541.25;5052712;27;101013;-78
2024/03/21 05:19:56;;;;;;;87.90;46.50;;;;;;;7.57;54.16;100537.66;5055348;27;96799;-77
2024/03/21 05:22:21;;;;;;;90.30;46.50;;;;;;;7.43;54.34;100509.16;5040179;27;96825;-77
2024/03/21 05:24:47;;;;;;;97.30;46.25;;;;;;;7.64;54.40;100536.63;5049060;27;101008;-77
2024/03/21 05:27:15;;;;;;;85.70;46.90;;;;;;;7.71;54.41;100548.72;5029799;27;101916;-77
2024/03/21 05:29:41;;;;;;;87.95;45.28;;;;;;;7.72;53.95;100530.38;5041819;27;97356;-77
2024/03/21 05:32:07;;;;;;;90.10;46.25;;;;;;;7.59;54.21;100541.06;5013730;27;97169;-79
2024/03/21 05:34:33;;;;;;;90.95;46.10;;;;;;;7.53;54.76;100529.00;5013048;27;99451;-78
2024/03/21 05:36:59;;;;;;;99.03;45.50;;;;;;;7.63;54.35;100533.16;5061335;27;98040;-78
2024/03/21 05:39:25;;;;;;;89.93;43.88;;;;;;;7.78;54.54;100531.16;5034581;27;97127;-77
2024/03/21 05:41:51;;;;;;;99.93;44.63;;;;;;;7.75;54.82;100526.84;5043916;27;97278;-77
2024/03/21 05:44:17;;;;;;;89.05;46.33;;;;;;;7.78;54.62;100532.00;5014513;27;101364;-78
2024/03/21 05:46:42;;;;;;;98.55;46.65;;;;;;;7.88;54.35;100546.66;5017338;27;101047;-81
2024/03/21 05:49:10;;;;;;;88.32;44.78;;;;;;;7.94;54.73;100538.69;5014168;28;97142;-79
2024/03/21 05:51:36;;;;;;;94.28;45.92;;;;;;;7.94;54.33;100532.56;5022535;27;96879;-78
2024/03/21 05:54:02;;;;;;;79.47;42.45;;;;;;;8.02;54.24;100527.19;5033794;27;97555;-78
2024/03/21 05:56:27;;;;;;;89.40;43.85;;;;;;;8.07;54.23;100536.66;5031691;27;99209;-78
2024/03/21 05:58:53;;;;;;;90.75;44.28;;;;;;;8.11;54.06;100533.09;5016092;27;98057;-77
2024/03/21 06:03:44;;;;;;;86.72;44.60;;;;;;;7.96;54.27;100532.53;5030434;27;100835;-78
2024/03/21 06:06:11;;;;;;;85.50;42.70;;;;;;;8.11;53.93;100537.47;5059448;27;97983;-77
2024/03/21 06:08:36;;;;;;;77.10;40.97;;;;;;;8.06;53.99;100526.25;5039125;27;96871;-77
2024/03/21 06:11:03;;;;;;;80.38;42.53;;;;;;;8.02;54.38;100520.22;5039989;27;97286;-79
2024/03/21 06:13:29;;;;;;;81.63;43.78;;;;;;;7.87;54.68;100524.00;5052421;27;98058;-74
2024/03/21 06:15:54;;;;;;;82.30;44.83;;;;;;;7.69;54.89;100496.47;5048849;27;97314;-77
2024/03/21 06:18:20;;;;;;;85.25;44.40;;;;;;;7.79;55.66;100522.41;5052502;27;96797;-77
2024/03/21 06:20:45;;;;;;;80.32;41.92;;;;;;;7.86;55.60;100530.13;5055254;27;96927;-76
2024/03/21 06:23:11;;;;;;;85.75;42.42;;;;;;;7.93;55.33;100495.09;5059429;27;97521;-77
2024/03/21 06:25:37;;;;;;;81.70;42.25;;;;;;;8.00;55.14;100493.25;5043970;27;97351;-76
2024/03/21 06:28:06;;;;;;;84.03;41.85;;;;;;;8.14;54.92;100533.06;5045994;27;96881;-77
2024/03/21 06:30:33;;;;;;;82.05;44.03;;;;;;;8.15;55.38;100531.28;5054481;27;97128;-82
2024/03/21 06:32:58;;;;;;;83.88;44.60;;;;;;;8.24;55.01;100525.00;5035356;27;97598;-77
2024/03/21 06:35:25;;;;;;;74.93;42.05;;;;;;;8.34;55.27;100536.97;5014588;28;101642;-79
2024/03/21 06:37:54;;;;;;;90.25;44.67;;;;;;;8.41;54.96;100525.53;5060704;27;96825;-76
2024/03/21 06:40:20;;;;;;;87.88;42.45;;;;;;;8.45;55.17;100521.09;5044941;27;97038;-77
2024/03/21 06:42:46;;;;;;;77.93;40.92;;;;;;;8.61;54.59;100530.34;5033951;27;101615;-81
2024/03/21 06:45:12;;;;;;;80.30;42.53;;;;;;;8.44;55.32;100493.22;5030240;27;97907;-77
2024/03/21 06:47:42;;;;;;;79.68;41.47;;;;;;;8.56;54.97;100499.03;5051683;27;96720;-77
2024/03/21 06:50:16;;;;;;;81.10;43.55;;;;;;;8.79;55.15;100531.66;5071139;27;96931;-77
2024/03/21 06:52:49;;;;;;;89.07;40.92;;;;;;;8.86;54.93;100520.13;5058139;27;97400;-79
2024/03/21 06:55:15;;;;;;;75.45;42.63;;;;;;;8.94;54.61;100533.06;5064262;27;97514;-75
2024/03/21 06:57:42;;;;;;;85.50;42.90;;;;;;;8.86;55.01;100529.75;5054147;27;96763;-77
2024/03/21 07:00:17;;;;;;;77.63;43.30;;;;;;;8.95;55.00;100516.44;5030388;27;96843;-77
2024/03/21 07:02:44;;;;;;;77.95;42.40;;;;;;;9.21;54.30;100531.50;5022350;27;102033;-73
2024/03/21 07:05:10;;;;;;;72.32;41.08;;;;;;;9.42;53.88;100537.97;5078363;27;97919;-77
2024/03/21 07:07:36;;;;;;;79.07;43.42;;;;;;;9.46;54.53;100537.00;5042534;27;98412;-75
2024/03/21 07:10:02;;;;;;;73.75;42.75;;;;;;;9.45;53.98;100537.88;5032146;27;96899;-75
2024/03/21 07:12:28;;;;;;;71.30;40.78;;;;;;;9.50;54.21;100505.41;5052268;27;97340;-74
2024/03/21 07:14:53;;;;;;;77.88;42.78;;;;;;;9.65;53.65;100514.63;5012728;27;101173;-77
2024/03/21 07:17:19;;;;;;;76.05;38.47;;;;;;;9.85;53.81;100513.22;5033099;27;97227;-79
2024/03/21 07:19:45;;;;;;;63.97;37.92;;;;;;;10.08;53.57;100512.56;5046227;27;98170;-73
2024/03/21 07:22:12;;;;;;;68.72;39.63;;;;;;;10.14;53.21;100518.50;5045726;27;97475;-75
2024/03/21 07:24:38;;;;;;;70.45;38.28;;;;;;;10.13;53.59;100513.31;5045829;27;97994;-80
2024/03/21 07:27:03;;;;;;;66.72;37.42;;;;;;;10.09;53.80;100502.03;5028108;27;97310;-74
2024/03/21 07:29:29;;;;;;;63.60;34.50;;;;;;;9.99;53.80;100503.22;5029259;27;98122;-75
2024/03/21 07:31:56;;;;;;;69.72;35.13;;;;;;;9.90;53.93;100522.69;5026148;27;100992;-78
2024/03/21 07:34:22;;;;;;;61.95;34.47;;;;;;;9.98;54.07;100510.22;5043485;27;98234;-78
2024/03/21 07:36:48;;;;;;;65.03;34.05;;;;;;;10.32;53.47;100501.38;5044994;27;98667;-78
2024/03/21 07:39:13;;;;;;;57.55;33.83;;;;;;;10.59;52.66;100506.72;5027867;27;97460;-84
2024/03/21 07:41:39;;;;;;;64.93;34.28;;;;;;;10.74;52.37;100490.47;5043448;27;98694;-78
2024/03/21 07:44:05;;;;;;;61.80;34.60;;;;;;;11.31;51.67;100509.59;5045892;27;98496;-81
2024/03/21 07:46:30;;;;;;;60.75;34.55;;;;;;;11.38;51.55;100505.88;5050442;27;97713;-78
2024/03/21 07:48:57;;;;;;;59.03;33.17;;;;;;;11.90;50.43;100485.66;5072910;27;96796;-78
2024/03/21 07:51:23;;;;;;;63.95;35.30;;;;;;;12.49;48.85;100504.50;5046748;27;97525;-79
2024/03/21 07:53:49;;;;;;;58.85;33.25;;;;;;;12.84;48.39;100505.72;5060842;27;96718;-78
2024/03/21 07:56:14;;;;;;;70.53;34.85;;;;;;;13.50;46.89;100484.53;5038205;27;97566;-78
2024/03/21 07:58:40;;;;;;;56.38;32.83;;;;;;;14.00;46.41;100503.38;5050527;27;96787;-77
2024/03/21 08:01:05;;;;;;;57.08;32.83;;;;;;;14.52;45.41;100504.59;5087350;27;97698;-77
2024/03/21 08:03:31;;;;;;;64.93;34.85;;;;;;;14.78;44.82;100512.13;5046239;27;97392;-78
2024/03/21 08:05:56;;;;;;;61.67;34.55;;;;;;;14.50;44.68;100508.09;5046764;27;96770;-78
2024/03/21 08:08:22;;;;;;;60.55;35.00;;;;;;;14.79;44.48;100489.19;5062842;27;97625;-78
2024/03/21 08:10:47;;;;;;;59.60;31.73;;;;;;;14.74;44.53;100489.41;5043464;27;97546;-82
2024/03/21 08:13:13;;;;;;;53.75;30.10;;;;;;;14.54;44.49;100508.84;5047888;27;97445;-78
2024/03/21 08:15:38;;;;;;;56.03;33.53;;;;;;;14.61;44.75;100504.16;5072466;27;97054;-82
2024/03/21 08:18:04;;;;;;;53.00;31.52;;;;;;;14.85;44.52;100502.94;5073107;27;96960;-80
2024/03/21 08:20:30;;;;;;;52.92;31.05;;;;;;;15.14;43.80;100496.22;5056245;27;98872;-78
2024/03/21 08:22:56;;;;;;;48.58;30.45;;;;;;;15.27;44.22;100490.31;5057290;27;97334;-78
2024/03/21 08:25:21;;;;;;;54.70;33.28;;;;;;;15.48;43.47;100497.16;5052079;27;97129;-78
2024/03/21 08:27:47;;;;;;;62.45;33.72;;;;;;;15.16;44.20;100490.88;5053463;27;97742;-78
2024/03/21 08:30:13;;;;;;;57.72;31.63;;;;;;;15.10;44.21;100470.88;5039166;27;99991;-77
2024/03/21 08:32:38;;;;;;;49.83;29.58;;;;;;;14.92;44.56;100485.88;5056478;27;97565;-77
2024/03/21 08:35:05;;;;;;;49.22;28.23;;;;;;;14.63;44.91;100492.59;5071109;27;96723;-75
2024/03/21 08:37:30;;;;;;;45.08;28.83;;;;;;;14.91;44.70;100493.88;5058618;27;96996;-75
2024/03/21 08:39:57;;;;;;;49.28;27.88;;;;;;;15.09;44.81;100494.72;5041094;27;98586;-75
2024/03/21 08:42:23;;;;;;;50.40;28.75;;;;;;;14.62;45.24;100504.06;5073071;27;97349;-74
2024/03/21 08:44:48;;;;;;;46.15;28.70;;;;;;;14.07;46.29;100503.09;5024011;27;96800;-76
2024/03/21 08:47:14;;;;;;;46.70;28.10;;;;;;;13.72;46.66;100477.38;5072495;27;96922;-76
2024/03/21 08:49:39;;;;;;;50.65;27.50;;;;;;;13.92;46.68;100470.34;5032354;27;100600;-76
2024/03/21 08:52:05;;;;;;;44.50;27.20;;;;;;;14.43;45.74;100479.44;5053573;27;97453;-81
2024/03/21 08:54:31;;;;;;;40.83;27.25;;;;;;;14.52;45.48;100483.47;5037333;27;96797;-78
2024/03/21 08:56:56;;;;;;;43.78;26.75;;;;;;;14.43;45.65;100459.16;5054186;27;98267;-81
2024/03/21 08:59:22;;;;;;;46.85;28.30;;;;;;;14.76;45.84;100491.97;5034908;27;97797;-79
2024/03/21 09:01:48;;;;;;;45.53;29.35;;;;;;;14.81;46.32;100498.75;5066871;27;98995;-80
2024/03/21 09:04:13;;;;;;;42.72;27.35;;;;;;;14.84;45.94;100471.31;5020489;27;97410;-76
2024/03/21 09:06:39;;;;;;;47.55;28.23;;;;;;;15.07;45.84;100486.91;5037748;27;97022;-78
2024/03/21 09:09:06;;;;;;;50.75;27.42;;;;;;;15.38;45.32;100472.09;5067870;27;97373;-78
2024/03/21 09:11:34;;;;;;;43.40;27.88;;;;;;;16.15;44.31;100490.13;5029241;27;101270;-80
2024/03/21 09:14:01;;;;;;;53.25;28.10;;;;;;;16.19;43.86;100462.50;5034477;27;98099;-81
2024/03/21 09:16:27;;;;;;;43.00;27.20;;;;;;;16.54;43.17;100467.63;5050586;27;97934;-80
2024/03/21 09:18:53;;;;;;;50.10;29.48;;;;;;;16.84;42.62;100477.47;5051331;27;97910;-80
2024/03/21 09:21:19;;;;;;;49.15;29.00;;;;;;;17.00;42.59;100488.91;5067297;27;97330;-82
2024/03/21 09:23:45;;;;;;;50.90;27.23;;;;;;;16.90;42.50;100479.75;5067958;27;97730;-81
2024/03/21 09:26:11;;;;;;;41.25;25.23;;;;;;;17.03;42.70;100470.16;5045990;27;97963;-82
2024/03/21 09:28:37;;;;;;;42.22;27.35;;;;;;;17.30;41.72;100477.44;5030204;27;101542;-83
2024/03/21 09:31:03;;;;;;;48.33;27.98;;;;;;;17.62;41.31;100478.13;5018386;27;101244;-81
2024/03/21 09:33:29;;;;;;;41.88;26.63;;;;;;;17.57;40.74;100435.09;5042816;27;97919;-78
2024/03/21 09:36:03;;;;;;;41.95;26.75;;;;;;;17.36;41.59;100480.56;5044666;27;97804;-80
2024/03/21 09:38:28;;;;;;;40.83;27.27;;;;;;;17.61;41.32;100461.38;5047150;27;98007;-78
2024/03/21 09:40:59;;;;;;;47.70;28.48;;;;;;;18.24;40.70;100473.44;5026085;27;102016;-78
2024/03/21 09:43:24;;;;;;;44.23;25.33;;;;;;;18.17;40.78;100445.53;5027993;27;97951;-80
2024/03/21 09:45:52;;;;;;;43.85;29.10;;;;;;;18.02;40.69;100444.69;5064004;27;97393;-85
2024/03/21 09:48:17;;;;;;;44.63;26.58;;;;;;;19.06;39.70;100461.03;5035376;27;99417;-83
2024/03/21 09:50:46;;;;;;;40.78;26.52;;;;;;;19.27;38.92;100461.38;5031122;27;97498;-79
2024/03/21 09:53:18;;;;;;;42.05;26.13;;;;;;;19.35;38.83;100461.72;5051417;27;98529;-78
2024/03/21 09:55:44;;;;;;;40.90;26.25;;;;;;;18.73;39.69;100454.34;5046799;27;97814;-79
2024/03/21 09:58:12;;;;;;;44.13;25.33;;;;;;;18.22;40.67;100446.09;5026115;27;101757;-78
2024/03/21 10:00:39;;;;;;;125.22;29.85;;;;;;;17.96;40.55;100457.53;5050197;27;98022;-81
2024/03/21 10:03:05;;;;;;;49.78;25.75;;;;;;;17.77;40.65;100434.75;5050293;27;97665;-82
2024/03/21 10:05:31;;;;;;;68.10;26.75;;;;;;;17.76;40.98;100451.59;5044121;27;97609;-77
2024/03/21 10:07:56;;;;;;;39.45;24.33;;;;;;;17.48;42.08;100452.44;5030642;27;101000;-80
2024/03/21 10:10:22;;;;;;;68.90;25.23;;;;;;;17.68;42.01;100439.75;5029865;27;101794;-81
2024/03/21 10:12:47;;;;;;;74.47;25.80;;;;;;;17.88;40.83;100448.22;5047702;27;98032;-77
2024/03/21 10:15:14;;;;;;;46.65;23.35;;;;;;;17.63;41.31;100453.31;5062677;27;98009;-81
2024/03/21 10:17:41;;;;;;;41.70;22.83;;;;;;;17.49;41.87;100453.31;5030406;27;101377;-79
2024/03/21 10:20:08;;;;;;;62.33;21.95;;;;;;;17.03;41.88;100429.53;5061970;27;97841;-77
2024/03/21 10:22:34;;;;;;;36.40;22.55;;;;;;;17.18;42.47;100450.69;5028244;27;97390;-81
2024/03/21 10:25:03;;;;;;;207.02;44.47;;;;;;;17.33;42.27;100451.56;5012708;27;98271;-83
2024/03/21 10:27:30;;;;;;;49.13;23.45;;;;;;;17.69;41.79;100425.56;5030325;27;101161;-76
2024/03/21 10:29:57;;;;;;;34.35;20.42;;;;;;;18.49;40.70;100451.44;5045029;27;97948;-78
2024/03/21 10:32:23;;;;;;;50.85;23.60;;;;;;;18.43;42.32;100451.84;5031017;27;97327;-82
2024/03/21 10:34:53;;;;;;;36.78;22.08;;;;;;;18.11;41.75;100451.22;5049111;27;97874;-79
2024/03/21 10:37:24;;;;;;;35.20;21.10;;;;;;;18.07;43.11;100447.94;5028010;27;97448;-79
2024/03/21 10:39:54;;;;;;;33.13;20.85;;;;;;;18.27;41.87;100438.69;5028136;27;101549;-75
2024/03/21 10:42:30;;;;;;;38.35;21.90;;;;;;;18.68;42.49;100447.59;5012236;27;97866;-75
2024/03/21 10:44:59;;;;;;;36.25;21.08;;;;;;;19.90;41.52;100444.59;5045024;27;97762;-77
2024/03/21 10:47:25;;;;;;;45.72;23.65;;;;;;;19.54;44.70;100444.47;5036664;27;99257;-70
2024/03/21 10:49:51;;;;;;;78.03;25.15;;;;;;;19.05;53.93;100432.69;5030765;27;98319;-80
2024/03/21 10:52:20;;;;;;;69.93;24.48;;;;;;;19.82;51.02;100444.28;5024420;27;97469;-78
2024/03/21 10:54:52;;;;;;;91.20;27.13;;;;;;;19.29;42.56;100424.03;5061773;27;97941;-79
2024/03/21 10:57:25;;;;;;;42.00;19.35;;;;;;;19.45;40.36;100443.28;5026370;27;101247;-80
2024/03/21 10:59:58;;;;;;;31.25;18.23;;;;;;;19.29;39.99;100419.56;5042957;27;100868;-76
2024/03/21 11:02:27;;;;;;;29.27;18.67;;;;;;;19.02;40.13;100405.47;5029602;27;97767;-78
2024/03/21 11:04:54;;;;;;;28.50;18.63;;;;;;;18.84;41.16;100402.25;5025173;27;97871;-82
2024/03/21 11:07:21;;;;;;;30.58;18.65;;;;;;;19.03;40.81;100409.84;5041755;27;98032;-81
2024/03/21 11:09:47;;;;;;;26.77;18.65;;;;;;;19.33;40.11;100434.34;5061989;27;97360;-83
2024/03/21 11:12:14;;;;;;;29.20;19.13;;;;;;;19.18;40.12;100420.28;5026142;27;97544;-85
2024/03/21 11:14:43;;;;;;;31.10;17.70;;;;;;;19.41;40.25;100394.75;5006068;27;98082;-82